Time;durP1;ratioP1;P1;durP2;ratioP2;P2;SDS_P1;SDS_P2;PMS_P1;PMS_P2;Temp;Humidity;BMP_temperature;BMP_pressure;BME280_temperature;BME280_humidity;BME280_pressure;Samples;Min_cycle;Max_cycle;Signal;HPM_P1;HPM_P2
2022/07/23 00:02:06;;;;;;;17.52;5.38;;;;;;;24.84;50.76;100215.03;4989115;28;20026;-68
2022/07/23 00:04:32;;;;;;;20.25;6.05;;;;;;;24.83;50.75;100218.88;4990252;28;20809;-68
2022/07/23 00:06:57;;;;;;;13.35;5.45;;;;;;;24.79;50.80;100212.16;4989709;28;20044;-68
2022/07/23 00:09:23;;;;;;;18.38;5.93;;;;;;;24.78;50.44;100216.81;4990106;28;20034;-67
2022/07/23 00:11:48;;;;;;;16.98;5.63;;;;;;;24.75;50.26;100213.66;4990236;28;20469;-67
2022/07/23 00:14:14;;;;;;;22.13;6.30;;;;;;;24.73;50.34;100213.06;4990022;28;20077;-67
2022/07/23 00:16:39;;;;;;;16.92;5.40;;;;;;;24.68;50.75;100205.53;4990307;28;20137;-68
2022/07/23 00:19:05;;;;;;;18.20;5.20;;;;;;;24.65;51.05;100205.13;4990108;28;20072;-68
2022/07/23 00:21:30;;;;;;;18.55;5.90;;;;;;;24.64;51.15;100206.22;4988396;28;20026;-67
2022/07/23 00:23:56;;;;;;;16.83;5.78;;;;;;;24.60;51.32;100205.78;4990391;28;20029;-68
2022/07/23 00:26:21;;;;;;;14.15;5.07;;;;;;;24.44;51.58;100185.28;4990151;28;20122;-67
2022/07/23 00:28:46;;;;;;;13.45;5.25;;;;;;;24.46;51.66;100190.56;4989958;28;20030;-70
2022/07/23 00:31:12;;;;;;;13.40;5.68;;;;;;;24.51;51.78;100200.84;4990231;28;20030;-70
2022/07/23 00:33:37;;;;;;;10.98;4.78;;;;;;;24.42;50.98;100203.03;4989683;28;20031;-69
2022/07/23 00:36:03;;;;;;;15.93;5.07;;;;;;;24.43;50.73;100211.03;4989645;28;20480;-70
2022/07/23 00:38:29;;;;;;;17.48;6.07;;;;;;;24.38;50.97;100210.88;4989848;28;20141;-69
2022/07/23 00:40:54;;;;;;;20.73;6.05;;;;;;;24.44;51.99;100220.13;4989536;28;20034;-70
2022/07/23 00:43:21;;;;;;;20.08;5.78;;;;;;;24.38;52.26;100213.63;4989453;28;20046;-70
2022/07/23 00:45:47;;;;;;;19.45;6.20;;;;;;;24.40;52.74;100214.25;4989820;28;20040;-69
2022/07/23 00:48:12;;;;;;;18.75;6.18;;;;;;;24.35;52.83;100211.31;4990044;28;20026;-70
2022/07/23 00:50:38;;;;;;;20.30;5.43;;;;;;;24.27;52.59;100208.03;4989110;28;20120;-70
2022/07/23 00:53:05;;;;;;;18.77;5.95;;;;;;;24.25;53.12;100213.75;4989671;28;20034;-68
2022/07/23 00:55:30;;;;;;;21.20;5.75;;;;;;;24.22;53.35;100224.34;4990042;28;20041;-66
2022/07/23 00:57:57;;;;;;;25.38;5.95;;;;;;;24.12;53.35;100204.81;4989803;28;20049;-68
2022/07/23 01:00:22;;;;;;;24.48;5.97;;;;;;;24.14;53.76;100225.47;4989245;28;20030;-67
2022/07/23 01:02:49;;;;;;;14.52;5.65;;;;;;;24.08;53.67;100220.88;4989384;28;20041;-68
2022/07/23 01:05:15;;;;;;;21.50;6.07;;;;;;;24.02;53.48;100213.53;4988755;28;20137;-67
2022/07/23 01:07:40;;;;;;;24.67;5.82;;;;;;;23.91;53.56;100207.91;4989338;28;20038;-67
2022/07/23 01:10:30;;;;;;;15.70;5.25;;;;;;;23.88;53.52;100217.44;4990415;28;20036;-67
2022/07/23 01:12:52;;;;;;;16.02;5.45;;;;;;;23.88;54.05;100220.16;4990186;28;20037;-67
2022/07/23 01:15:17;;;;;;;15.38;5.20;;;;;;;23.86;54.05;100216.78;4990112;28;20547;-66
2022/07/23 01:17:43;;;;;;;25.55;6.13;;;;;;;23.85;54.56;100220.59;4990009;28;20030;-68
2022/07/23 01:20:08;;;;;;;15.40;5.28;;;;;;;23.84;54.87;100220.84;4990246;28;20547;-68
2022/07/23 01:22:34;;;;;;;17.55;5.40;;;;;;;23.77;54.69;100215.38;4990046;28;20070;-67
2022/07/23 01:24:59;;;;;;;15.63;5.50;;;;;;;23.76;55.01;100210.16;4990324;28;20049;-66
2022/07/23 01:27:25;;;;;;;18.52;5.72;;;;;;;23.78;55.31;100217.09;4989909;28;20044;-68
2022/07/23 01:29:50;;;;;;;18.08;5.70;;;;;;;23.78;55.55;100218.97;4988608;28;20030;-66
2022/07/23 01:32:16;;;;;;;16.65;5.82;;;;;;;23.73;55.95;100216.09;4989683;28;20026;-66
2022/07/23 01:34:42;;;;;;;18.73;5.13;;;;;;;23.68;56.32;100205.78;4989735;28;20046;-67
2022/07/23 01:37:08;;;;;;;15.07;5.97;;;;;;;23.71;56.51;100205.34;4989815;28;20026;-66
2022/07/23 01:39:33;;;;;;;15.93;5.35;;;;;;;23.64;56.46;100190.00;4988493;28;20488;-67
2022/07/23 01:41:58;;;;;;;18.63;5.85;;;;;;;23.67;56.31;100204.09;4988208;28;20089;-67
2022/07/23 01:44:24;;;;;;;16.02;5.18;;;;;;;23.55;56.73;100192.19;4989599;28;20046;-67
2022/07/23 01:46:50;;;;;;;17.55;6.55;;;;;;;23.55;56.84;100200.41;4989608;28;20113;-69
2022/07/23 01:49:15;;;;;;;18.45;6.18;;;;;;;23.53;57.26;100194.28;4989827;28;20049;-70
2022/07/23 01:51:59;;;;;;;13.23;5.53;;;;;;;23.45;57.50;100185.50;4989594;28;20022;-67
2022/07/23 01:54:28;;;;;;;20.08;5.72;;;;;;;23.48;57.06;100196.88;4989355;28;20144;-67
2022/07/23 01:56:54;;;;;;;12.80;5.45;;;;;;;23.36;57.04;100182.19;4989390;28;20057;-67
2022/07/23 01:59:20;;;;;;;16.67;6.05;;;;;;;23.33;57.39;100187.25;4989211;28;20151;-67
2022/07/23 02:01:45;;;;;;;18.42;5.43;;;;;;;23.34;57.96;100202.66;4987610;28;20057;-68
2022/07/23 02:04:11;;;;;;;18.10;5.65;;;;;;;23.26;58.22;100192.78;4989218;28;20045;-66
2022/07/23 02:06:36;;;;;;;13.68;4.90;;;;;;;23.23;58.22;100193.22;4989162;28;20435;-66
2022/07/23 02:09:02;;;;;;;18.27;5.97;;;;;;;23.20;58.83;100193.63;4989684;28;20500;-67
2022/07/23 02:11:28;;;;;;;12.40;5.25;;;;;;;23.18;59.16;100189.44;4986595;28;20491;-67
2022/07/23 02:13:53;;;;;;;17.15;6.22;;;;;;;23.01;59.39;100169.94;4988909;28;20034;-68
2022/07/23 02:16:19;;;;;;;14.77;5.80;;;;;;;23.15;59.50;100200.81;4988262;28;20030;-67
2022/07/23 02:18:45;;;;;;;19.08;6.07;;;;;;;23.12;60.16;100191.13;4988948;28;20030;-67
2022/07/23 02:21:11;;;;;;;22.70;6.38;;;;;;;23.10;59.63;100186.94;4988860;28;20084;-67
2022/07/23 02:23:36;;;;;;;36.97;8.82;;;;;;;23.02;58.89;100170.78;4988827;28;20480;-67
2022/07/23 02:26:02;;;;;;;42.92;7.07;;;;;;;23.09;58.66;100190.75;4989006;28;20101;-68
2022/07/23 02:28:27;;;;;;;21.20;6.50;;;;;;;23.03;58.81;100192.47;4988846;28;20038;-67
2022/07/23 02:30:53;;;;;;;21.88;5.97;;;;;;;22.97;59.00;100190.59;4987377;28;20018;-66
2022/07/23 02:33:18;;;;;;;18.98;6.00;;;;;;;22.91;59.20;100194.19;4988953;28;20041;-67
2022/07/23 02:35:44;;;;;;;14.02;5.68;;;;;;;22.74;59.57;100173.03;4988777;28;20030;-67
2022/07/23 02:38:09;;;;;;;14.88;6.38;;;;;;;22.84;59.94;100196.13;4988663;28;20376;-68
2022/07/23 02:40:35;;;;;;;12.98;5.40;;;;;;;22.79;60.85;100190.47;4987487;28;20066;-66
2022/07/23 02:43:00;;;;;;;12.82;5.68;;;;;;;22.75;61.35;100185.63;4987934;28;20069;-66
2022/07/23 02:45:26;;;;;;;15.50;5.75;;;;;;;22.69;61.60;100194.72;4988532;28;20038;-67
2022/07/23 02:47:51;;;;;;;16.77;6.68;;;;;;;22.68;61.85;100206.69;4988575;28;20100;-68
2022/07/23 02:50:17;;;;;;;31.85;6.38;;;;;;;22.53;61.98;100192.47;4988444;28;20030;-68
2022/07/23 02:52:42;;;;;;;15.77;7.03;;;;;;;22.56;62.47;100211.13;4988324;28;20026;-68
2022/07/23 02:55:08;;;;;;;15.30;6.43;;;;;;;22.55;63.05;100214.94;4988343;28;20049;-68
2022/07/23 02:57:33;;;;;;;14.93;6.18;;;;;;;22.39;63.23;100191.59;4988393;28;20034;-67
2022/07/23 02:59:59;;;;;;;19.67;6.20;;;;;;;22.46;63.50;100205.25;4987805;28;20109;-68
2022/07/23 03:02:24;;;;;;;16.38;5.53;;;;;;;22.46;63.49;100199.78;4988008;28;20384;-68
2022/07/23 03:04:50;;;;;;;12.40;6.03;;;;;;;22.33;63.12;100178.78;4988331;28;20062;-68
2022/07/23 03:07:16;;;;;;;16.88;5.65;;;;;;;22.32;62.60;100188.88;4988041;28;20033;-67
2022/07/23 03:09:42;;;;;;;15.02;5.55;;;;;;;22.33;61.58;100195.19;4988129;28;20437;-67
2022/07/23 03:12:08;;;;;;;14.98;5.70;;;;;;;22.37;60.87;100209.28;4988123;28;20054;-67
2022/07/23 03:14:34;;;;;;;16.95;5.60;;;;;;;22.37;60.70;100209.28;4988472;28;20128;-66
2022/07/23 03:17:02;;;;;;;13.20;6.22;;;;;;;22.33;60.65;100214.31;4988224;28;20109;-67
2022/07/23 03:19:28;;;;;;;14.40;5.38;;;;;;;22.30;60.57;100217.47;4987140;28;20042;-66
2022/07/23 03:21:53;;;;;;;15.88;5.85;;;;;;;22.25;60.45;100218.09;4987147;28;20049;-66
2022/07/23 03:24:19;;;;;;;13.43;5.75;;;;;;;22.21;60.63;100216.00;4989075;28;20026;-67
2022/07/23 03:26:44;;;;;;;27.27;6.88;;;;;;;22.16;61.22;100211.19;4988955;28;20022;-68
2022/07/23 03:29:10;;;;;;;18.25;6.95;;;;;;;22.16;60.93;100216.66;4987995;28;20034;-67
2022/07/23 03:31:36;;;;;;;24.23;6.90;;;;;;;22.06;61.15;100202.56;4990151;28;20072;-67
2022/07/23 03:34:01;;;;;;;26.25;6.35;;;;;;;22.13;61.26;100228.03;4991169;28;20475;-67
2022/07/23 03:36:27;;;;;;;15.75;6.63;;;;;;;22.17;61.81;100212.03;4989545;28;20091;-68
2022/07/23 03:38:53;;;;;;;16.15;6.45;;;;;;;22.17;61.45;100218.34;4988236;28;20080;-68
2022/07/23 03:41:20;;;;;;;20.65;6.15;;;;;;;22.15;61.50;100219.59;4987189;28;20361;-67
2022/07/23 03:43:46;;;;;;;18.65;6.00;;;;;;;22.16;61.95;100222.09;4985000;28;20054;-67
2022/07/23 03:46:12;;;;;;;19.70;6.80;;;;;;;22.19;62.33;100220.88;4987001;28;20049;-67
2022/07/23 03:48:37;;;;;;;17.23;5.75;;;;;;;22.18;61.98;100216.44;4987440;28;20190;-67
2022/07/23 03:51:03;;;;;;;13.82;6.25;;;;;;;22.17;62.09;100215.63;4987086;28;20030;-66
2022/07/23 03:53:29;;;;;;;11.82;5.70;;;;;;;22.18;62.53;100213.69;4987178;28;20091;-67
2022/07/23 03:55:54;;;;;;;17.25;6.82;;;;;;;22.14;63.20;100202.38;4987024;28;20373;-68
2022/07/23 03:58:20;;;;;;;20.50;6.18;;;;;;;22.26;62.96;100210.75;4987204;28;20073;-68
2022/07/23 04:00:48;;;;;;;18.13;6.60;;;;;;;22.28;62.89;100209.50;4987158;28;20045;-67
2022/07/23 04:03:14;;;;;;;15.05;6.55;;;;;;;22.31;62.60;100200.88;4987482;28;20030;-68
2022/07/23 04:05:39;;;;;;;12.57;5.97;;;;;;;22.47;60.97;100215.16;4987420;28;20041;-67
2022/07/23 04:08:05;;;;;;;18.08;6.85;;;;;;;22.50;61.75;100201.09;4985981;28;20030;-67
2022/07/23 04:10:30;;;;;;;30.00;8.50;;;;;;;22.64;62.77;100202.72;4985866;28;20042;-68
2022/07/23 04:12:56;;;;;;;19.48;7.82;;;;;;;22.75;62.82;100202.88;4987573;28;20116;-67
2022/07/23 04:15:21;;;;;;;26.55;9.30;;;;;;;22.87;61.73;100209.38;4987583;28;20038;-67
2022/07/23 04:17:46;;;;;;;29.30;11.63;;;;;;;22.97;59.85;100212.50;4987590;28;20033;-68
2022/07/23 04:20:12;;;;;;;19.73;12.10;;;;;;;23.13;58.92;100217.47;4987613;28;20041;-66
2022/07/23 04:22:38;;;;;;;22.48;10.82;;;;;;;23.27;57.96;100215.50;4987893;28;20125;-69
2022/07/23 04:25:04;;;;;;;20.48;10.85;;;;;;;23.35;57.42;100198.84;4986996;28;20480;-66
2022/07/23 04:27:30;;;;;;;20.77;10.30;;;;;;;23.60;56.48;100208.78;4986995;28;20043;-68
2022/07/23 04:29:55;;;;;;;18.13;8.68;;;;;;;23.78;55.96;100210.75;4987286;28;20038;-68
2022/07/23 04:32:21;;;;;;;15.80;11.05;;;;;;;23.89;55.69;100199.91;4985927;28;20031;-66
2022/07/23 04:34:46;;;;;;;18.30;9.52;;;;;;;24.17;54.21;100204.97;4987048;28;20022;-67
2022/07/23 04:37:12;;;;;;;24.63;7.22;;;;;;;24.23;53.04;100190.38;4987013;28;20056;-68
2022/07/23 04:39:37;;;;;;;14.98;6.25;;;;;;;24.42;52.85;100206.63;4988529;28;20054;-70
2022/07/23 04:42:03;;;;;;;13.63;6.38;;;;;;;24.57;52.24;100206.28;4990781;28;20023;-69
2022/07/23 04:44:28;;;;;;;14.48;7.75;;;;;;;24.64;51.61;100197.97;4990871;28;20058;-70
2022/07/23 04:46:54;;;;;;;25.98;9.27;;;;;;;24.82;51.21;100212.53;4990868;28;20030;-70
2022/07/23 04:49:19;;;;;;;22.10;9.48;;;;;;;24.91;50.57;100204.81;4990712;28;20026;-69
2022/07/23 04:51:45;;;;;;;24.60;11.70;;;;;;;24.96;50.65;100207.72;4990529;28;20395;-69
2022/07/23 04:54:10;;;;;;;16.52;9.93;;;;;;;25.06;50.50;100213.50;4990973;28;20038;-69
2022/07/23 04:56:38;;;;;;;16.77;7.18;;;;;;;25.16;50.07;100213.81;4990239;28;20360;-68
2022/07/23 04:59:04;;;;;;;20.05;6.82;;;;;;;25.20;50.05;100204.03;4990542;28;20404;-70
2022/07/23 05:01:29;;;;;;;16.40;5.88;;;;;;;25.39;49.46;100219.44;4990795;28;20026;-70
2022/07/23 05:03:54;;;;;;;12.48;6.18;;;;;;;25.44;48.89;100216.84;4990791;28;20022;-67
2022/07/23 05:06:20;;;;;;;14.50;5.63;;;;;;;25.61;48.70;100215.94;4990356;28;20025;-68
2022/07/23 05:08:45;;;;;;;14.57;4.93;;;;;;;25.71;48.36;100220.84;4990363;28;20030;-67
2022/07/23 05:11:11;;;;;;;24.33;7.00;;;;;;;25.71;48.18;100218.09;4990571;28;20117;-67
2022/07/23 05:13:36;;;;;;;17.95;5.85;;;;;;;25.74;47.92;100220.38;4990133;28;20380;-68
2022/07/23 05:16:02;;;;;;;13.13;6.38;;;;;;;25.86;47.30;100224.00;4990203;28;20034;-66
2022/07/23 05:18:27;;;;;;;13.45;5.57;;;;;;;25.91;47.52;100222.22;4990179;28;20428;-66
2022/07/23 05:20:53;;;;;;;9.10;5.20;;;;;;;25.96;47.51;100214.09;4990136;28;20033;-68
2022/07/23 05:23:18;;;;;;;11.05;5.22;;;;;;;26.14;46.75;100225.03;4990102;28;20034;-67
2022/07/23 05:25:44;;;;;;;18.42;5.13;;;;;;;26.27;46.18;100219.31;4989870;28;20615;-70
2022/07/23 05:28:09;;;;;;;15.18;5.45;;;;;;;26.42;45.45;100207.81;4988863;28;20060;-69
2022/07/23 05:30:35;;;;;;;14.73;5.47;;;;;;;26.55;45.45;100213.06;4989504;28;20037;-70
2022/07/23 05:33:00;;;;;;;11.55;5.22;;;;;;;26.69;45.77;100221.97;4989712;28;20037;-68
2022/07/23 05:35:26;;;;;;;12.48;4.72;;;;;;;26.84;45.58;100225.88;4989749;28;20034;-67
2022/07/23 05:37:52;;;;;;;16.17;5.82;;;;;;;26.99;45.73;100217.09;4990082;28;20029;-67
2022/07/23 05:40:18;;;;;;;12.00;5.95;;;;;;;27.14;45.81;100211.91;4989528;28;20026;-66
2022/07/23 05:42:43;;;;;;;10.70;5.72;;;;;;;27.35;45.61;100220.38;4989828;28;20054;-67
2022/07/23 05:45:09;;;;;;;12.20;5.65;;;;;;;27.53;44.94;100222.91;4989709;28;20053;-68
2022/07/23 05:47:48;;;;;;;10.90;5.50;;;;;;;27.76;44.26;100228.28;4989536;28;20030;-66
2022/07/23 05:50:15;;;;;;;14.82;6.07;;;;;;;27.90;43.59;100229.72;4989690;28;20041;-68
2022/07/23 05:52:41;;;;;;;14.77;5.75;;;;;;;28.05;43.68;100226.38;4988356;28;20495;-67
2022/07/23 05:55:08;;;;;;;14.40;6.32;;;;;;;28.20;42.49;100232.97;4989357;28;20049;-67
2022/07/23 05:57:34;;;;;;;14.27;5.28;;;;;;;28.32;41.69;100225.44;4989148;28;20034;-67
2022/07/23 05:59:59;;;;;;;14.10;5.35;;;;;;;28.47;40.89;100228.47;4989372;28;20033;-67
2022/07/23 06:02:25;;;;;;;14.55;5.55;;;;;;;28.59;40.62;100224.78;4989082;28;20030;-68
2022/07/23 06:04:50;;;;;;;14.52;5.45;;;;;;;28.75;40.16;100226.66;4989263;28;20510;-68
2022/07/23 06:07:16;;;;;;;14.35;5.60;;;;;;;28.92;40.08;100224.69;4988970;28;20139;-68
2022/07/23 06:09:41;;;;;;;17.23;5.60;;;;;;;29.06;39.47;100223.22;4988898;28;20384;-68
2022/07/23 06:12:07;;;;;;;13.60;5.00;;;;;;;29.20;38.94;100217.06;4989292;28;20113;-68
2022/07/23 06:14:32;;;;;;;21.40;6.00;;;;;;;29.43;39.04;100227.81;4987254;28;20045;-67
2022/07/23 06:16:59;;;;;;;16.55;6.15;;;;;;;29.65;38.99;100228.66;4988861;28;20038;-68
2022/07/23 06:19:25;;;;;;;21.20;5.97;;;;;;;29.74;39.21;100204.97;4988764;28;20068;-68
2022/07/23 06:21:50;;;;;;;12.38;5.47;;;;;;;29.97;38.37;100214.84;4988884;28;20030;-68
2022/07/23 06:24:16;;;;;;;12.45;5.10;;;;;;;30.13;37.48;100211.13;4989294;28;20038;-68
2022/07/23 06:26:41;;;;;;;14.90;5.30;;;;;;;30.33;37.13;100216.84;4989046;28;20029;-68
2022/07/23 06:29:07;;;;;;;12.57;4.60;;;;;;;30.52;36.76;100218.91;4988847;28;20360;-67
2022/07/23 06:31:33;;;;;;;27.02;6.28;;;;;;;30.72;36.28;100220.16;4988430;28;20026;-69
2022/07/23 06:33:58;;;;;;;25.65;6.10;;;;;;;30.87;36.05;100214.69;4988850;28;20076;-69
2022/07/23 06:36:24;;;;;;;14.52;5.00;;;;;;;31.02;36.10;100220.34;4988478;28;20432;-70
2022/07/23 06:38:49;;;;;;;18.33;5.82;;;;;;;31.18;35.97;100217.38;4988541;28;20480;-70
2022/07/23 06:41:15;;;;;;;17.05;5.47;;;;;;;31.39;35.80;100213.56;4988937;28;20836;-68
2022/07/23 06:43:40;;;;;;;16.88;5.53;;;;;;;31.57;35.00;100209.47;4988252;28;20436;-68
2022/07/23 06:46:06;;;;;;;15.60;5.80;;;;;;;31.68;34.84;100217.53;4988475;28;20042;-70
2022/07/23 06:48:31;;;;;;;15.15;5.32;;;;;;;31.92;34.89;100218.69;4988451;28;20530;-70
2022/07/23 06:50:57;;;;;;;17.30;5.25;;;;;;;32.07;34.14;100209.53;4988179;28;20014;-70
2022/07/23 06:53:23;;;;;;;15.30;5.38;;;;;;;32.14;34.44;100199.81;4988259;28;20030;-69
2022/07/23 06:55:48;;;;;;;12.77;5.30;;;;;;;32.38;33.34;100214.84;4988579;28;20045;-69
2022/07/23 06:58:14;;;;;;;21.90;5.50;;;;;;;32.52;32.76;100215.06;4988366;28;20026;-69
2022/07/23 07:00:40;;;;;;;10.93;5.43;;;;;;;32.60;32.96;100195.06;4988068;28;20038;-69
2022/07/23 07:03:05;;;;;;;26.48;5.10;;;;;;;32.89;32.73;100212.81;4987857;28;20435;-67
2022/07/23 07:05:31;;;;;;;14.38;5.53;;;;;;;33.09;32.71;100209.94;4988094;28;20045;-67
2022/07/23 07:07:56;;;;;;;13.57;4.82;;;;;;;33.29;32.53;100209.84;4987685;28;20037;-68
2022/07/23 07:10:22;;;;;;;11.52;4.75;;;;;;;33.46;31.62;100210.34;4987603;28;20026;-68
2022/07/23 07:12:48;;;;;;;13.35;4.85;;;;;;;33.66;31.31;100203.84;4987828;28;20352;-67
2022/07/23 07:15:13;;;;;;;13.63;5.05;;;;;;;33.87;30.47;100211.78;4987723;28;20121;-67
2022/07/23 07:17:39;;;;;;;15.73;5.35;;;;;;;34.02;29.97;100200.53;4987717;28;20037;-68
2022/07/23 07:20:05;;;;;;;11.57;4.78;;;;;;;34.13;29.33;100196.53;4987220;28;20117;-67
2022/07/23 07:22:31;;;;;;;13.43;5.88;;;;;;;34.18;30.12;100201.22;4985931;28;20038;-67
2022/07/23 07:24:57;;;;;;;14.95;4.93;;;;;;;34.18;29.83;100174.19;4987714;28;20038;-67
2022/07/23 07:27:22;;;;;;;10.70;4.95;;;;;;;34.42;29.74;100199.34;4987586;28;20369;-67
2022/07/23 07:29:48;;;;;;;15.82;5.72;;;;;;;34.49;30.04;100189.50;4987635;28;20501;-68
2022/07/23 07:32:13;;;;;;;15.60;4.68;;;;;;;34.55;29.24;100182.78;4987542;28;20022;-68
2022/07/23 07:34:39;;;;;;;16.45;5.88;;;;;;;34.62;29.61;100181.59;4987390;28;20033;-68
2022/07/23 07:37:04;;;;;;;11.77;5.32;;;;;;;34.71;29.66;100175.06;4987143;28;20026;-68
2022/07/23 07:39:30;;;;;;;16.92;5.63;;;;;;;34.87;29.97;100189.66;4987158;28;20030;-69
2022/07/23 07:41:55;;;;;;;12.85;5.78;;;;;;;34.95;30.02;100187.09;4985422;28;20030;-70
2022/07/23 07:44:21;;;;;;;10.60;5.30;;;;;;;35.09;29.54;100187.16;4986187;28;20134;-69
2022/07/23 07:46:46;;;;;;;11.63;5.10;;;;;;;35.19;29.12;100190.66;4985745;28;20404;-69
2022/07/23 07:49:12;;;;;;;14.93;4.95;;;;;;;35.28;28.79;100186.09;4987353;28;20034;-69
2022/07/23 07:51:37;;;;;;;15.20;4.88;;;;;;;35.40;27.84;100185.69;4987559;28;20030;-69
2022/07/23 07:54:03;;;;;;;9.23;4.82;;;;;;;35.48;27.52;100180.25;4987467;28;20042;-69
2022/07/23 07:56:28;;;;;;;9.57;4.75;;;;;;;35.57;27.64;100169.22;4987814;28;20068;-69
2022/07/23 07:58:54;;;;;;;14.07;4.78;;;;;;;35.65;27.33;100179.72;4987367;28;20038;-69
2022/07/23 08:01:19;;;;;;;10.35;4.75;;;;;;;35.80;27.23;100171.13;4987766;28;20093;-70
2022/07/23 08:03:45;;;;;;;9.23;4.20;;;;;;;35.91;27.09;100181.81;4987581;28;20030;-70
2022/07/23 08:06:11;;;;;;;10.90;4.93;;;;;;;36.05;27.03;100179.94;4987350;28;20038;-69
2022/07/23 08:08:37;;;;;;;13.25;5.13;;;;;;;36.14;27.16;100174.47;4987336;28;20026;-69
2022/07/23 08:11:02;;;;;;;10.27;4.70;;;;;;;36.21;27.05;100175.72;4987674;28;20033;-69
2022/07/23 08:13:28;;;;;;;10.57;4.70;;;;;;;36.30;26.79;100182.28;4987340;28;20038;-69
2022/07/23 08:15:53;;;;;;;9.73;4.60;;;;;;;36.37;26.94;100181.91;4990243;28;20045;-69
2022/07/23 08:18:19;;;;;;;10.18;4.90;;;;;;;36.38;26.54;100161.19;4990250;28;20781;-70
2022/07/23 08:20:45;;;;;;;12.85;5.13;;;;;;;36.53;26.40;100180.47;4991134;28;20061;-68
2022/07/23 08:23:10;;;;;;;8.95;4.72;;;;;;;36.59;26.86;100176.47;4991311;28;20060;-70
2022/07/23 08:25:41;;;;;;;9.18;4.45;;;;;;;36.69;26.94;100170.66;4989632;28;20088;-69
2022/07/23 08:28:11;;;;;;;10.52;5.32;;;;;;;36.85;26.38;100165.63;4991119;28;20026;-70
2022/07/23 08:30:38;;;;;;;11.52;4.97;;;;;;;36.96;26.37;100162.28;4991044;28;20049;-68
2022/07/23 08:33:10;;;;;;;13.38;5.03;;;;;;;37.06;26.30;100164.88;4990941;28;20083;-67
2022/07/23 08:35:39;;;;;;;7.28;4.30;;;;;;;37.15;25.82;100163.00;4990998;28;20030;-69
2022/07/23 08:38:07;;;;;;;4.53;3.90;;;;;;;37.26;26.14;100161.66;4989783;28;20484;-69
2022/07/23 08:40:35;;;;;;;6.63;4.05;;;;;;;37.37;25.89;100165.06;4990991;28;20037;-69
2022/07/23 08:43:05;;;;;;;6.97;4.05;;;;;;;37.47;25.50;100160.06;4990167;28;20077;-68
2022/07/23 08:45:30;;;;;;;8.63;4.00;;;;;;;37.53;25.19;100160.78;4989781;28;20511;-70
2022/07/23 08:48:00;;;;;;;7.75;4.10;;;;;;;37.56;25.28;100162.94;4989569;28;20031;-69
2022/07/23 08:50:26;;;;;;;9.13;4.53;;;;;;;37.63;25.12;100157.72;4989715;28;20030;-68
2022/07/23 08:52:53;;;;;;;10.82;4.20;;;;;;;37.73;25.22;100160.31;4989884;28;20030;-69
2022/07/23 08:55:20;;;;;;;6.00;4.18;;;;;;;37.76;25.25;100151.28;4989963;28;20030;-67
2022/07/23 08:57:49;;;;;;;12.05;4.32;;;;;;;37.85;24.41;100161.38;4987889;28;20388;-69
2022/07/23 09:00:15;;;;;;;5.32;3.50;;;;;;;37.92;24.42;100150.59;4987655;28;20030;-68
2022/07/23 09:02:42;;;;;;;5.90;3.83;;;;;;;37.98;23.82;100160.50;4989190;28;20116;-69
2022/07/23 09:05:12;;;;;;;5.85;3.67;;;;;;;38.03;24.12;100162.34;4989413;28;20412;-68
2022/07/23 09:07:58;;;;;;;7.20;3.47;;;;;;;38.08;24.13;100160.28;4989353;28;20483;-67
2022/07/23 09:10:23;;;;;;;7.68;3.70;;;;;;;38.16;23.82;100159.50;4987595;28;20030;-67
2022/07/23 09:12:49;;;;;;;6.65;3.63;;;;;;;38.10;24.01;100141.16;4989263;28;20031;-67
2022/07/23 09:15:14;;;;;;;7.88;3.70;;;;;;;38.36;23.62;100166.53;4989227;28;20542;-69
2022/07/23 09:17:43;;;;;;;9.38;4.00;;;;;;;38.36;23.59;100144.94;4989036;28;20045;-69
2022/07/23 09:20:10;;;;;;;7.15;4.13;;;;;;;38.56;23.79;100165.19;4989592;28;20436;-69
2022/07/23 09:22:36;;;;;;;5.68;3.55;;;;;;;38.60;23.75;100166.19;4987668;28;20626;-69
2022/07/23 09:25:09;;;;;;;7.97;3.97;;;;;;;38.64;23.92;100156.81;4989260;28;20037;-68
2022/07/23 09:27:59;;;;;;;10.55;3.78;;;;;;;38.62;23.63;100155.50;4988853;28;20515;-68
2022/07/23 09:30:27;;;;;;;6.57;4.07;;;;;;;38.66;23.74;100150.88;4988870;28;20197;-68
2022/07/23 09:33:14;;;;;;;11.48;3.92;;;;;;;38.64;23.38;100155.97;4988788;28;20092;-69
2022/07/23 09:35:54;;;;;;;7.60;3.67;;;;;;;38.68;23.58;100152.19;4987182;28;20022;-69
2022/07/23 09:38:23;;;;;;;7.63;3.80;;;;;;;38.71;23.34;100151.56;4989137;28;20034;-69
2022/07/23 09:41:07;;;;;;;5.20;3.75;;;;;;;38.75;23.69;100146.97;4988945;28;20044;-68
2022/07/23 09:43:33;;;;;;;7.95;4.45;;;;;;;38.74;23.58;100139.69;4944936;28;1294970;-68
2022/07/23 09:46:17;;;;;;;4.88;3.60;;;;;;;38.81;23.27;100142.84;4989481;28;20049;-68
2022/07/23 09:48:43;;;;;;;5.95;3.83;;;;;;;38.85;23.76;100138.25;4990132;28;20076;-68
2022/07/23 09:51:08;;;;;;;9.85;4.63;;;;;;;38.89;23.94;100136.44;4989669;28;20030;-68
2022/07/23 09:53:34;;;;;;;7.38;3.70;;;;;;;38.93;23.91;100131.84;4989557;28;20068;-68
2022/07/23 09:56:00;;;;;;;8.80;4.35;;;;;;;38.96;23.94;100133.19;4989500;28;20030;-67
2022/07/23 09:58:29;;;;;;;7.78;3.60;;;;;;;39.00;23.63;100122.97;4989453;28;20038;-68
2022/07/23 10:00:55;;;;;;;6.68;4.30;;;;;;;39.01;23.47;100117.03;4989293;28;20052;-67
2022/07/23 10:03:23;;;;;;;11.02;3.63;;;;;;;39.04;23.67;100123.97;4989709;28;20034;-67
2022/07/23 10:05:50;;;;;;;10.38;4.60;;;;;;;39.04;23.68;100126.78;4989615;28;20034;-68
2022/07/23 10:08:18;;;;;;;6.78;3.95;;;;;;;39.00;22.86;100103.34;4989243;28;20026;-68
2022/07/23 10:10:46;;;;;;;13.48;4.10;;;;;;;39.00;23.48;100101.34;4989326;28;20030;-68
2022/07/23 10:15:40;;;;;;;10.02;4.03;;;;;;;39.09;23.15;100113.41;4989194;28;20045;-67
2022/07/23 10:18:05;;;;;;;6.72;3.40;;;;;;;39.16;22.76;100115.75;4988988;28;20116;-68
2022/07/23 10:20:31;;;;;;;9.80;3.78;;;;;;;39.23;21.51;100113.28;4987289;28;20150;-68
2022/07/23 10:23:04;;;;;;;8.95;3.83;;;;;;;39.27;20.96;100109.50;4989162;28;20036;-69
2022/07/23 10:25:39;;;;;;;;;;;;;;;39.31;21.09;100109.63;4989133;28;20096;-68
2022/07/23 10:28:23;;;;;;;6.85;3.67;;;;;;;39.41;21.01;100113.00;4988744;28;19920;-68
2022/07/23 10:31:03;;;;;;;5.28;3.70;;;;;;;39.44;21.88;100108.69;4988998;28;20066;-68
2022/07/23 10:33:45;;;;;;;9.13;3.85;;;;;;;39.49;22.17;100100.91;4987265;28;20034;-68
2022/07/23 10:36:39;;;;;;;6.72;3.80;;;;;;;39.55;21.51;100107.22;4988443;28;20452;-68
2022/07/23 10:39:19;;;;;;;4.63;3.88;;;;;;;39.58;21.45;100098.94;4987984;28;20117;-68
2022/07/23 10:41:45;;;;;;;5.97;3.70;;;;;;;39.62;21.45;100105.53;4987014;28;20029;-68
2022/07/23 10:44:16;;;;;;;5.30;3.63;;;;;;;39.69;21.67;100105.06;4988400;28;20054;-69
2022/07/23 10:49:32;;;;;;;8.63;3.92;;;;;;;39.68;21.82;100094.97;4988374;28;20042;-68
2022/07/23 10:52:13;;;;;;;7.50;3.60;;;;;;;39.64;21.50;100091.16;4988435;28;20018;-69
2022/07/23 10:54:39;;;;;;;6.85;3.67;;;;;;;39.61;21.73;100080.59;4988601;28;20486;-68
2022/07/23 10:57:10;;;;;;;5.15;3.45;;;;;;;39.65;21.77;100088.03;4986170;28;20129;-69
2022/07/23 11:00:14;;;;;;;8.38;4.03;;;;;;;39.65;20.92;100079.59;4988728;28;20058;-68
2022/07/23 11:02:46;;;;;;;5.78;3.78;;;;;;;39.70;20.13;100071.00;4987733;28;20038;-68
2022/07/23 11:05:18;;;;;;;6.95;3.80;;;;;;;39.77;20.07;100076.94;4988038;28;20038;-68
2022/07/23 11:08:02;;;;;;;7.15;3.67;;;;;;;39.82;20.59;100076.81;4988270;28;20034;-67
2022/07/23 11:10:47;;;;;;;6.95;3.47;;;;;;;39.86;20.27;100074.97;4987886;28;20108;-67
2022/07/23 11:13:21;;;;;;;7.38;3.65;;;;;;;39.91;20.48;100071.97;4987759;28;20038;-66
2022/07/23 11:16:02;;;;;;;8.07;3.75;;;;;;;39.97;19.73;100062.22;4987786;28;20400;-67
2022/07/23 11:18:39;;;;;;;5.00;3.95;;;;;;;39.92;20.45;100070.84;4988220;28;20034;-66
2022/07/23 11:21:20;;;;;;;7.97;3.97;;;;;;;39.92;20.80;100065.22;4987898;28;20117;-68
2022/07/23 11:24:13;;;;;;;7.43;3.17;;;;;;;39.94;20.37;100048.81;4987887;28;20022;-68
2022/07/23 11:26:50;;;;;;;8.02;4.25;;;;;;;39.97;20.02;100050.16;4985553;28;20077;-68